Blencoe, Iowa
Current Conditions -  °F | °C
As of 3:54 AM on Saturday 25 Oct 2014 (Local Time) from KTQE Reporting Station
Clear Clear  
Wind Chill: 45°   Ceiling: Unl
Heat Index: 47°   Visibility: 10mi
Dew Point: 44°   Wind: 5mph
Humidity: 90%   Direction: 310°NW
Pressure: 30.04"   Gusts: NA
Location:  41.93°N, 96.08°W
Report Text: KTQE 250854Z AUTO 31004KT 10SM CLR 08/07 A3004 RMK AO2 SLP164 T00830067 53006
Loading
Personal Weather Stations






























Interactive Weather Map
Tropical Storm Tracking
New forecast layout! Learn more

10-Day Weather Forecast

Advertisements
Track Severe Weather on mobile